createdAt,value
2022-12-25T00:00:41.190Z,5.28
2022-12-25T00:01:42.840Z,5.32
2022-12-25T00:02:44.476Z,5.36
2022-12-25T00:03:47.085Z,5.41
2022-12-25T00:04:48.812Z,5.42
2022-12-25T00:05:50.385Z,5.43
2022-12-25T00:06:51.976Z,5.46
2022-12-25T00:07:53.562Z,5.53
2022-12-25T00:08:55.108Z,5.57
2022-12-25T00:09:56.660Z,5.61
2022-12-25T00:11:11.327Z,5.67
2022-12-25T00:12:12.876Z,5.71
2022-12-25T00:13:14.410Z,5.74
2022-12-25T00:14:16.039Z,5.76
2022-12-25T00:15:17.889Z,5.78
2022-12-25T00:16:22.588Z,5.76
2022-12-25T00:17:24.190Z,5.81
2022-12-25T00:18:26.174Z,5.73
2022-12-25T00:19:27.727Z,5.72
2022-12-25T00:20:29.269Z,5.72
2022-12-25T00:21:30.960Z,5.73
2022-12-25T00:22:32.682Z,5.74
2022-12-25T00:23:35.460Z,5.76
2022-12-25T00:24:37.215Z,5.81
2022-12-25T00:25:42.154Z,5.83
2022-12-25T00:26:43.861Z,5.82
2022-12-25T00:27:45.361Z,5.78
2022-12-25T00:28:47.020Z,5.78
2022-12-25T00:29:48.710Z,5.77
2022-12-25T00:30:51.176Z,5.74
2022-12-25T00:31:52.826Z,5.66
2022-12-25T00:32:54.497Z,5.67
2022-12-25T00:33:56.227Z,5.67
2022-12-25T00:34:57.905Z,5.63
2022-12-25T00:36:00.835Z,5.55
2022-12-25T00:37:02.400Z,5.46
2022-12-25T00:38:04.215Z,5.44
2022-12-25T00:39:07.149Z,5.35
2022-12-25T00:40:09.428Z,5.39
2022-12-25T00:41:16.847Z,5.45
2022-12-25T00:42:21.021Z,5.47
2022-12-25T00:43:22.950Z,5.46
2022-12-25T00:44:24.536Z,5.45
2022-12-25T00:45:26.197Z,5.40
2022-12-25T00:46:27.837Z,5.37
2022-12-25T00:47:29.728Z,5.39
2022-12-25T00:48:32.124Z,5.27
2022-12-25T00:49:33.686Z,5.05
2022-12-25T00:50:40.016Z,4.87
2022-12-25T00:51:41.726Z,4.77
2022-12-25T00:52:43.275Z,4.68
2022-12-25T00:53:44.785Z,4.55
2022-12-25T00:54:46.369Z,4.47
2022-12-25T00:55:56.293Z,4.32
2022-12-25T00:56:58.120Z,4.24
2022-12-25T00:57:59.715Z,4.17
2022-12-25T00:59:01.257Z,4.19
2022-12-25T01:00:03.214Z,4.12
2022-12-25T01:01:05.121Z,4.10
2022-12-25T01:02:25.493Z,4.05
2022-12-25T01:03:28.317Z,4.02
2022-12-25T01:04:29.885Z,4.02
2022-12-25T01:05:31.484Z,4.08
2022-12-25T01:06:33.476Z,4.13
2022-12-25T01:07:35.009Z,4.19
2022-12-25T01:08:38.489Z,4.28
2022-12-25T01:09:58.987Z,4.31
2022-12-25T01:11:06.544Z,4.39
2022-12-25T01:12:08.118Z,4.47
2022-12-25T01:13:09.717Z,4.56
2022-12-25T01:14:11.671Z,4.66
2022-12-25T01:15:14.199Z,4.75
2022-12-25T01:16:16.420Z,4.81
2022-12-25T01:17:18.059Z,4.89
2022-12-25T01:18:20.933Z,4.96
2022-12-25T01:19:22.495Z,5.03
2022-12-25T01:20:24.094Z,5.09
2022-12-25T01:21:26.342Z,5.10
2022-12-25T01:22:27.993Z,5.14
2022-12-25T01:23:29.492Z,5.18
2022-12-25T01:24:31.120Z,5.17
2022-12-25T01:25:33.161Z,5.06
2022-12-25T01:26:34.836Z,4.99
2022-12-25T01:27:36.676Z,4.95
2022-12-25T01:28:39.173Z,4.91
2022-12-25T01:29:40.826Z,4.86
2022-12-25T01:30:48.965Z,4.81
2022-12-25T01:31:50.497Z,4.78
2022-12-25T01:32:52.130Z,4.81
2022-12-25T01:33:53.880Z,4.84
2022-12-25T01:34:56.382Z,4.87
2022-12-25T01:35:58.740Z,4.58
2022-12-25T01:37:00.418Z,4.39
2022-12-25T01:38:01.992Z,4.26
2022-12-25T01:39:04.332Z,4.19
2022-12-25T01:40:06.682Z,4.24
2022-12-25T01:41:08.244Z,4.32
2022-12-25T01:42:17.499Z,4.41
2022-12-25T01:43:26.628Z,4.41
2022-12-25T01:44:37.270Z,4.47
2022-12-25T01:45:43.851Z,4.53
2022-12-25T01:46:46.015Z,4.60
2022-12-25T01:47:47.852Z,4.64
2022-12-25T01:48:50.138Z,4.59
2022-12-25T01:49:51.779Z,4.51
2022-12-25T01:51:10.105Z,4.57
2022-12-25T01:52:23.653Z,4.61
2022-12-25T01:53:26.519Z,4.63
2022-12-25T01:54:41.203Z,4.69
2022-12-25T01:55:47.365Z,4.71
2022-12-25T01:56:52.556Z,4.75
2022-12-25T01:57:54.271Z,4.75
2022-12-25T01:58:58.290Z,4.71
2022-12-25T02:00:01.295Z,4.65
2022-12-25T02:01:02.957Z,4.67
2022-12-25T02:02:04.800Z,4.67
2022-12-25T02:03:07.428Z,4.52
2022-12-25T02:04:25.222Z,4.41
2022-12-25T02:05:32.296Z,4.44
2022-12-25T02:06:35.332Z,4.46
2022-12-25T02:07:41.246Z,4.42
2022-12-25T02:08:43.529Z,4.45
2022-12-25T02:09:46.756Z,4.46
2022-12-25T02:10:48.373Z,4.40
2022-12-25T02:11:59.001Z,4.43
2022-12-25T02:13:02.821Z,4.38
2022-12-25T02:14:04.432Z,4.30
2022-12-25T02:15:09.615Z,4.33
2022-12-25T02:16:21.185Z,4.41
2022-12-25T02:17:40.592Z,4.51
2022-12-25T02:18:55.375Z,4.60
2022-12-25T02:20:25.551Z,4.64
2022-12-25T02:21:30.055Z,4.65
2022-12-25T02:22:31.649Z,4.65
2022-12-25T02:23:41.164Z,4.68
2022-12-25T02:24:58.224Z,4.74
2022-12-25T02:26:33.804Z,4.80
2022-12-25T02:28:02.610Z,4.81
2022-12-25T02:29:17.369Z,4.87
2022-12-25T02:30:19.301Z,4.86
2022-12-25T02:31:38.101Z,4.91
2022-12-25T02:33:21.282Z,4.86
2022-12-25T02:34:38.101Z,4.84
2022-12-25T02:35:42.545Z,4.85
2022-12-25T02:36:57.547Z,4.85
2022-12-25T02:38:11.879Z,4.86
2022-12-25T02:39:59.832Z,4.88
2022-12-25T02:41:09.404Z,5.05
2022-12-25T02:42:16.662Z,5.12
2022-12-25T02:43:43.772Z,5.18
2022-12-25T02:45:05.920Z,5.21
2022-12-25T02:46:30.447Z,5.23
2022-12-25T02:47:52.035Z,5.17
2022-12-25T02:49:18.909Z,5.11
2022-12-25T02:50:40.308Z,5.07
2022-12-25T02:52:06.528Z,4.99
2022-12-25T02:53:27.909Z,4.91
2022-12-25T02:54:53.597Z,4.67
2022-12-25T02:56:15.099Z,4.25
2022-12-25T02:57:39.249Z,4.02
2022-12-25T02:59:03.115Z,3.87
2022-12-25T03:00:24.543Z,3.75
2022-12-25T03:01:48.678Z,3.60
2022-12-25T03:03:11.666Z,3.59
2022-12-25T03:04:37.072Z,3.72
2022-12-25T03:05:59.763Z,3.85
2022-12-25T03:07:11.639Z,3.95
2022-12-25T03:08:20.647Z,4.01
2022-12-25T03:09:45.735Z,4.10
2022-12-25T03:11:11.670Z,4.09
2022-12-25T03:12:50.035Z,4.09
2022-12-25T03:13:55.610Z,4.15
2022-12-25T03:15:15.826Z,4.23
2022-12-25T03:16:36.266Z,4.32
2022-12-25T03:17:38.216Z,4.36
2022-12-25T03:18:39.873Z,4.38
2022-12-25T03:19:59.938Z,4.36
2022-12-25T03:21:20.252Z,4.42
2022-12-25T03:22:45.214Z,4.42
2022-12-25T03:24:03.623Z,4.42
2022-12-25T03:25:24.124Z,4.42
2022-12-25T03:26:45.818Z,4.52
2022-12-25T03:27:51.547Z,4.52
2022-12-25T03:28:53.224Z,4.57
2022-12-25T03:30:13.443Z,4.66
2022-12-25T03:31:20.665Z,4.73
2022-12-25T03:32:31.332Z,4.78
2022-12-25T03:34:10.170Z,4.83
2022-12-25T03:35:48.403Z,4.86
2022-12-25T03:37:02.107Z,4.89
2022-12-25T03:38:44.322Z,4.89
2022-12-25T03:39:55.697Z,4.89
2022-12-25T03:41:27.865Z,4.89
2022-12-25T03:42:56.176Z,4.85
2022-12-25T03:44:29.154Z,4.86
2022-12-25T03:46:00.166Z,4.84
2022-12-25T03:47:31.090Z,4.83
2022-12-25T03:48:55.069Z,4.80
2022-12-25T03:50:33.818Z,4.81
2022-12-25T03:51:55.902Z,4.77
2022-12-25T03:53:17.456Z,4.79
2022-12-25T03:54:42.877Z,4.83
2022-12-25T03:56:02.962Z,4.81
2022-12-25T03:57:26.963Z,4.92
2022-12-25T03:58:47.615Z,4.99
2022-12-25T04:00:07.909Z,4.98
2022-12-25T04:01:28.700Z,4.99
2022-12-25T04:02:49.132Z,5.04
2022-12-25T04:04:09.269Z,5.05
2022-12-25T04:05:29.551Z,5.04
2022-12-25T04:06:49.947Z,5.01
2022-12-25T04:08:10.223Z,5.03
2022-12-25T04:09:30.411Z,4.96
2022-12-25T04:10:50.753Z,4.79
2022-12-25T04:12:11.066Z,4.58
2022-12-25T04:13:31.175Z,4.43
2022-12-25T04:14:51.034Z,4.36
2022-12-25T04:16:12.942Z,4.30
2022-12-25T04:17:33.056Z,4.32
2022-12-25T04:18:53.033Z,4.26
2022-12-25T04:20:13.072Z,4.30
2022-12-25T04:21:33.324Z,4.34
2022-12-25T04:22:53.106Z,4.44
2022-12-25T04:24:12.904Z,4.55
2022-12-25T04:25:32.813Z,4.59
2022-12-25T04:26:52.776Z,4.65
2022-12-25T04:28:12.725Z,4.66
2022-12-25T04:29:33.075Z,4.68
2022-12-25T04:30:53.456Z,4.78
2022-12-25T04:32:13.399Z,4.83
2022-12-25T04:33:33.276Z,4.86
2022-12-25T04:34:53.451Z,4.85
2022-12-25T04:36:10.966Z,4.86
2022-12-25T04:37:12.549Z,4.89
2022-12-25T04:38:14.139Z,4.89
2022-12-25T04:39:15.830Z,4.89
2022-12-25T04:40:19.160Z,4.90
2022-12-25T04:41:20.808Z,4.89
2022-12-25T04:42:22.413Z,5.05
2022-12-25T04:43:25.248Z,5.10
2022-12-25T04:44:27.232Z,5.15
2022-12-25T04:45:28.791Z,5.18
2022-12-25T04:46:30.392Z,5.16
2022-12-25T04:47:33.339Z,5.13
2022-12-25T04:48:37.202Z,5.11
2022-12-25T04:49:39.333Z,5.12
2022-12-25T04:50:40.958Z,5.13
2022-12-25T04:51:42.558Z,5.09
2022-12-25T04:52:44.243Z,5.08
2022-12-25T04:53:46.875Z,5.04
2022-12-25T04:54:48.446Z,5.03
2022-12-25T04:55:50.266Z,5.00
2022-12-25T04:56:51.892Z,4.94
2022-12-25T04:57:53.429Z,4.93
2022-12-25T04:58:56.045Z,4.88
2022-12-25T04:59:58.620Z,4.88
2022-12-25T05:01:01.534Z,4.92
2022-12-25T05:02:03.309Z,4.93
2022-12-25T05:03:05.071Z,4.97
2022-12-25T05:04:07.262Z,4.96
2022-12-25T05:05:09.051Z,4.91
2022-12-25T05:06:11.118Z,4.94
2022-12-25T05:07:12.753Z,4.93
2022-12-25T05:08:14.322Z,4.93
2022-12-25T05:09:15.922Z,4.88
2022-12-25T05:10:17.505Z,4.86
2022-12-25T05:11:19.246Z,4.83
2022-12-25T05:12:20.852Z,4.80
2022-12-25T05:13:22.455Z,4.79
2022-12-25T05:14:24.052Z,4.78
2022-12-25T05:15:25.845Z,4.81
2022-12-25T05:16:27.460Z,4.87
2022-12-25T05:17:29.169Z,4.92
2022-12-25T05:18:30.674Z,4.91
2022-12-25T05:19:32.254Z,4.89
2022-12-25T05:20:39.723Z,4.76
2022-12-25T05:21:41.925Z,4.56
2022-12-25T05:22:43.478Z,4.28
2022-12-25T05:23:48.729Z,3.99
2022-12-25T05:24:50.444Z,3.78
2022-12-25T05:25:52.247Z,3.63
2022-12-25T05:26:54.564Z,3.59
2022-12-25T05:27:56.155Z,3.53
2022-12-25T05:28:59.580Z,3.50
2022-12-25T05:30:01.329Z,3.52
2022-12-25T05:31:03.134Z,3.54
2022-12-25T05:32:07.732Z,3.63
2022-12-25T05:33:09.409Z,3.61
2022-12-25T05:34:11.716Z,3.64
2022-12-25T05:35:13.285Z,3.66
2022-12-25T05:36:14.909Z,3.64
2022-12-25T05:37:16.418Z,3.65
2022-12-25T05:38:18.275Z,3.66
2022-12-25T05:39:20.062Z,3.62
2022-12-25T05:40:21.717Z,3.66
2022-12-25T05:41:23.462Z,3.71
2022-12-25T05:42:25.061Z,3.81
2022-12-25T05:43:27.541Z,3.89
2022-12-25T05:44:29.401Z,3.98
2022-12-25T05:45:31.555Z,3.93
2022-12-25T05:46:33.221Z,3.92
2022-12-25T05:47:34.782Z,4.00
2022-12-25T05:48:38.002Z,4.03
2022-12-25T05:49:39.616Z,4.03
2022-12-25T05:50:41.196Z,4.05
2022-12-25T05:51:42.725Z,4.06
2022-12-25T05:52:44.356Z,3.99
2022-12-25T05:53:45.972Z,3.92
2022-12-25T05:54:47.550Z,3.93
2022-12-25T05:55:49.116Z,3.93
2022-12-25T05:56:51.581Z,3.84
2022-12-25T05:57:54.147Z,3.76
2022-12-25T05:58:55.768Z,3.72
2022-12-25T05:59:58.309Z,3.78
2022-12-25T06:01:00.413Z,3.81
2022-12-25T06:02:02.190Z,3.91
2022-12-25T06:03:04.400Z,3.98
2022-12-25T06:04:12.205Z,4.04
2022-12-25T06:05:14.552Z,4.10
2022-12-25T06:06:16.286Z,4.05
2022-12-25T06:07:17.971Z,4.02
2022-12-25T06:08:19.950Z,3.88
2022-12-25T06:09:21.480Z,3.75
2022-12-25T06:10:23.587Z,3.71
2022-12-25T06:11:25.235Z,3.64
2022-12-25T06:12:26.816Z,3.60
2022-12-25T06:13:28.364Z,3.68
2022-12-25T06:14:30.014Z,3.75
2022-12-25T06:15:31.759Z,3.76
2022-12-25T06:16:37.886Z,3.78
2022-12-25T06:17:39.619Z,3.82
2022-12-25T06:18:44.383Z,3.88
2022-12-25T06:19:45.879Z,3.95
2022-12-25T06:20:47.470Z,4.02
2022-12-25T06:21:52.621Z,4.08
2022-12-25T06:22:54.209Z,4.11
2022-12-25T06:23:55.829Z,4.16
2022-12-25T06:24:57.629Z,4.24
2022-12-25T06:25:59.721Z,4.31
2022-12-25T06:27:01.256Z,4.35
2022-12-25T06:28:02.857Z,4.40
2022-12-25T06:29:04.496Z,4.46
2022-12-25T06:30:07.115Z,4.48
2022-12-25T06:31:10.993Z,4.50
2022-12-25T06:32:12.592Z,4.50
2022-12-25T06:33:14.191Z,4.35
2022-12-25T06:34:16.602Z,4.32
2022-12-25T06:35:18.581Z,4.27
2022-12-25T06:36:22.606Z,4.17
2022-12-25T06:37:24.167Z,4.07
2022-12-25T06:38:25.728Z,3.98
2022-12-25T06:39:27.501Z,3.89
2022-12-25T06:40:29.071Z,3.82
2022-12-25T06:41:30.920Z,3.75
2022-12-25T06:42:32.758Z,3.76
2022-12-25T06:43:34.568Z,3.86
2022-12-25T06:44:36.105Z,3.89
2022-12-25T06:45:37.812Z,3.90
2022-12-25T06:46:39.608Z,3.94
2022-12-25T06:47:41.164Z,3.99
2022-12-25T06:48:49.188Z,4.07
2022-12-25T06:49:50.876Z,4.18
2022-12-25T06:50:52.469Z,4.33
2022-12-25T06:51:54.045Z,4.52
2022-12-25T06:52:56.675Z,4.66
2022-12-25T06:53:59.827Z,4.82
2022-12-25T06:55:01.585Z,4.95
2022-12-25T06:56:04.860Z,5.10
2022-12-25T06:57:06.434Z,5.20
2022-12-25T06:58:07.993Z,5.26
2022-12-25T06:59:11.226Z,5.39
2022-12-25T07:00:13.382Z,5.54
2022-12-25T07:01:30.441Z,5.69
2022-12-25T07:02:33.546Z,5.78
2022-12-25T07:03:35.173Z,5.87
2022-12-25T07:04:42.090Z,5.99
2022-12-25T07:05:44.959Z,6.01
2022-12-25T07:06:46.875Z,5.79
2022-12-25T07:07:48.449Z,5.62
2022-12-25T07:08:50.132Z,5.46
2022-12-25T07:09:51.826Z,5.33
2022-12-25T07:10:53.381Z,5.21
2022-12-25T07:11:55.093Z,5.28
2022-12-25T07:12:56.714Z,5.27
2022-12-25T07:13:58.320Z,5.30
2022-12-25T07:14:59.906Z,5.40
2022-12-25T07:16:04.230Z,5.45
2022-12-25T07:17:06.223Z,5.49
2022-12-25T07:18:08.378Z,5.56
2022-12-25T07:19:10.584Z,5.76
2022-12-25T07:20:12.145Z,5.92
2022-12-25T07:21:19.203Z,6.07
2022-12-25T07:22:20.799Z,6.20
2022-12-25T07:23:22.975Z,6.22
2022-12-25T07:24:24.863Z,6.18
2022-12-25T07:25:27.990Z,6.13
2022-12-25T07:26:31.533Z,6.04
2022-12-25T07:27:33.349Z,5.93
2022-12-25T07:28:34.978Z,5.86
2022-12-25T07:29:36.609Z,5.94
2022-12-25T07:30:38.212Z,6.00
2022-12-25T07:31:39.782Z,6.11
2022-12-25T07:32:44.357Z,6.27
2022-12-25T07:33:54.414Z,6.52
2022-12-25T07:34:55.934Z,6.72
2022-12-25T07:35:58.182Z,6.87
2022-12-25T07:36:59.940Z,7.01
2022-12-25T07:38:01.529Z,7.16
2022-12-25T07:39:03.959Z,7.32
2022-12-25T07:40:06.632Z,7.47
2022-12-25T07:41:10.246Z,7.61
2022-12-25T07:42:11.991Z,7.74
2022-12-25T07:43:14.086Z,7.80
2022-12-25T07:44:16.387Z,7.86
2022-12-25T07:45:17.923Z,7.85
2022-12-25T07:46:20.498Z,7.72
2022-12-25T07:47:22.139Z,7.59
2022-12-25T07:48:23.866Z,7.39
2022-12-25T07:49:25.498Z,7.46
2022-12-25T07:50:27.055Z,7.61
2022-12-25T07:51:30.253Z,7.75
2022-12-25T07:52:33.438Z,7.92
2022-12-25T07:53:37.617Z,8.07
2022-12-25T07:54:39.168Z,8.17
2022-12-25T07:55:40.724Z,8.18
2022-12-25T07:56:42.302Z,8.02
2022-12-25T07:57:43.841Z,7.99
2022-12-25T07:58:46.138Z,8.02
2022-12-25T07:59:47.672Z,8.01
2022-12-25T08:00:49.319Z,7.98
2022-12-25T08:01:51.482Z,7.81
2022-12-25T08:02:53.329Z,7.75
2022-12-25T08:03:57.685Z,7.79
2022-12-25T08:04:59.412Z,7.91
2022-12-25T08:06:05.761Z,8.13
2022-12-25T08:07:07.471Z,8.32
2022-12-25T08:08:09.255Z,8.38
2022-12-25T08:09:12.867Z,8.42
2022-12-25T08:10:14.539Z,8.48
2022-12-25T08:11:16.245Z,8.40
2022-12-25T08:12:17.889Z,8.50
2022-12-25T08:13:19.542Z,8.68
2022-12-25T08:14:21.275Z,8.84
2022-12-25T08:15:22.851Z,8.98
2022-12-25T08:16:24.542Z,9.01
2022-12-25T08:17:26.180Z,9.10
2022-12-25T08:18:30.060Z,9.16
2022-12-25T08:19:32.036Z,9.22
2022-12-25T08:20:34.280Z,9.29
2022-12-25T08:21:36.012Z,9.41
2022-12-25T08:22:37.588Z,9.51
2022-12-25T08:23:42.122Z,9.19
2022-12-25T08:24:43.696Z,8.86
2022-12-25T08:25:45.264Z,8.59
2022-12-25T08:26:46.971Z,8.34
2022-12-25T08:27:48.565Z,8.18
2022-12-25T08:28:51.164Z,8.05
2022-12-25T08:29:52.693Z,7.99
2022-12-25T08:30:54.261Z,7.99
2022-12-25T08:31:56.042Z,8.05
2022-12-25T08:32:57.633Z,8.18
2022-12-25T08:34:01.778Z,8.19
2022-12-25T08:35:03.466Z,8.18
2022-12-25T08:36:07.093Z,8.33
2022-12-25T08:37:08.654Z,8.55
2022-12-25T08:38:10.289Z,8.69
2022-12-25T08:39:11.979Z,8.73
2022-12-25T08:40:13.814Z,8.77
2022-12-25T08:41:16.491Z,8.88
2022-12-25T08:42:18.045Z,9.01
2022-12-25T08:43:19.562Z,9.18
2022-12-25T08:44:21.101Z,9.37
2022-12-25T08:45:22.858Z,9.72
2022-12-25T08:46:24.865Z,9.98
2022-12-25T08:47:26.457Z,10.18
2022-12-25T08:48:34.465Z,10.31
2022-12-25T08:49:36.686Z,10.42
2022-12-25T08:50:38.704Z,10.54
2022-12-25T08:51:44.831Z,10.61
2022-12-25T08:52:46.422Z,10.68
2022-12-25T08:53:51.045Z,10.76
2022-12-25T08:54:52.643Z,10.87
2022-12-25T08:55:58.534Z,11.03
2022-12-25T08:57:02.934Z,11.19
2022-12-25T08:58:04.782Z,11.34
2022-12-25T08:59:06.595Z,11.42
2022-12-25T09:00:17.347Z,11.50
2022-12-25T09:01:21.090Z,11.73
2022-12-25T09:02:23.001Z,11.74
2022-12-25T09:03:25.660Z,11.85
2022-12-25T09:04:27.341Z,11.84
2022-12-25T09:05:29.334Z,11.85
2022-12-25T09:06:30.931Z,11.88
2022-12-25T09:07:32.451Z,11.84
2022-12-25T09:08:35.294Z,11.88
2022-12-25T09:09:37.174Z,11.93
2022-12-25T09:10:39.144Z,12.08
2022-12-25T09:11:40.717Z,12.18
2022-12-25T09:12:42.241Z,12.19
2022-12-25T09:13:43.874Z,12.16
2022-12-25T09:14:45.415Z,12.12
2022-12-25T09:15:47.021Z,12.15
2022-12-25T09:16:51.182Z,12.21
2022-12-25T09:17:52.738Z,12.28
2022-12-25T09:18:57.515Z,12.26
2022-12-25T09:19:59.356Z,12.26
2022-12-25T09:21:02.490Z,12.25
2022-12-25T09:22:04.344Z,12.21
2022-12-25T09:23:11.639Z,12.19
2022-12-25T09:24:15.261Z,12.21
2022-12-25T09:25:17.172Z,12.19
2022-12-25T09:26:19.770Z,12.26
2022-12-25T09:27:21.401Z,12.32
2022-12-25T09:28:22.979Z,12.39
2022-12-25T09:29:24.668Z,12.44
2022-12-25T09:30:26.354Z,12.52
2022-12-25T09:31:28.026Z,12.54
2022-12-25T09:32:29.675Z,12.56
2022-12-25T09:33:31.409Z,12.56
2022-12-25T09:34:33.421Z,12.57
2022-12-25T09:35:35.095Z,12.57
2022-12-25T09:36:37.401Z,12.56
2022-12-25T09:37:38.955Z,12.54
2022-12-25T09:38:41.442Z,12.56
2022-12-25T09:39:46.374Z,12.61
2022-12-25T09:40:49.181Z,12.63
2022-12-25T09:42:05.391Z,12.69
2022-12-25T09:43:11.830Z,12.69
2022-12-25T09:44:19.552Z,12.73
2022-12-25T09:45:32.888Z,12.74
2022-12-25T09:46:57.015Z,12.76
2022-12-25T09:47:59.093Z,12.77
2022-12-25T09:49:13.689Z,12.83
2022-12-25T09:50:24.296Z,12.89
2022-12-25T09:51:29.567Z,12.90
2022-12-25T09:53:09.830Z,12.92
2022-12-25T09:54:19.685Z,12.88
2022-12-25T09:55:24.494Z,12.86
2022-12-25T09:56:26.137Z,12.92
2022-12-25T09:57:27.709Z,12.90
2022-12-25T09:58:30.399Z,12.95
2022-12-25T09:59:32.017Z,13.04
2022-12-25T10:00:42.240Z,13.09
2022-12-25T10:02:04.647Z,13.06
2022-12-25T10:03:15.281Z,13.04
2022-12-25T10:04:25.868Z,13.06
2022-12-25T10:06:04.577Z,13.14
2022-12-25T10:07:40.825Z,13.15
2022-12-25T10:09:07.249Z,13.23
2022-12-25T10:10:23.713Z,13.25
2022-12-25T10:11:38.859Z,13.22
2022-12-25T10:13:23.621Z,13.20
2022-12-25T10:14:47.112Z,13.22
2022-12-25T10:16:14.125Z,13.28
2022-12-25T10:17:21.719Z,13.37
2022-12-25T10:18:44.753Z,13.32
2022-12-25T10:19:58.345Z,13.34
2022-12-25T10:21:02.097Z,13.28
2022-12-25T10:22:14.520Z,13.20
2022-12-25T10:23:24.036Z,13.10
2022-12-25T10:24:32.991Z,13.07
2022-12-25T10:25:38.838Z,13.03
2022-12-25T10:26:40.576Z,13.06
2022-12-25T10:27:43.073Z,13.11
2022-12-25T10:29:00.120Z,13.09
2022-12-25T10:30:02.016Z,13.06
2022-12-25T10:31:17.830Z,13.08
2022-12-25T10:32:19.956Z,13.09
2022-12-25T10:33:21.768Z,13.10
2022-12-25T10:34:23.745Z,13.11
2022-12-25T10:35:28.848Z,13.11
2022-12-25T10:36:31.079Z,13.16
2022-12-25T10:37:33.048Z,13.24
2022-12-25T10:38:36.592Z,13.31
2022-12-25T10:39:44.054Z,13.31
2022-12-25T10:41:06.574Z,13.30
2022-12-25T10:42:31.162Z,13.23
2022-12-25T10:43:43.760Z,13.15
2022-12-25T10:45:06.077Z,13.16
2022-12-25T10:46:15.682Z,13.19
2022-12-25T10:47:24.072Z,13.17
2022-12-25T10:48:30.642Z,13.18
2022-12-25T10:49:38.506Z,13.15
2022-12-25T10:50:43.504Z,13.12
2022-12-25T10:51:45.299Z,13.15
2022-12-25T10:52:56.679Z,13.22
2022-12-25T10:53:58.524Z,13.23
2022-12-25T10:55:12.386Z,13.21
2022-12-25T10:56:18.143Z,13.23
2022-12-25T10:57:22.437Z,13.27
2022-12-25T10:58:24.040Z,13.31
2022-12-25T10:59:27.873Z,13.32
2022-12-25T11:00:32.447Z,13.33
2022-12-25T11:01:34.199Z,13.32
2022-12-25T11:02:40.721Z,13.35
2022-12-25T11:03:50.926Z,13.29
2022-12-25T11:05:02.731Z,13.38
2022-12-25T11:06:05.182Z,13.41
2022-12-25T11:07:15.033Z,13.40
2022-12-25T11:08:22.537Z,13.42
2022-12-25T11:09:24.321Z,13.39
2022-12-25T11:10:34.384Z,13.42
2022-12-25T11:11:38.181Z,13.48
2022-12-25T11:12:44.772Z,13.50
2022-12-25T11:13:53.929Z,13.55
2022-12-25T11:15:03.083Z,13.52
2022-12-25T11:16:13.542Z,13.50
2022-12-25T11:17:21.639Z,13.53
2022-12-25T11:18:25.523Z,13.50
2022-12-25T11:19:32.508Z,13.48
2022-12-25T11:20:34.165Z,13.43
2022-12-25T11:21:37.309Z,13.43
2022-12-25T11:22:45.275Z,13.43
2022-12-25T11:23:50.427Z,13.48
2022-12-25T11:24:52.127Z,13.49
2022-12-25T11:26:03.067Z,13.47
2022-12-25T11:27:06.446Z,13.43
2022-12-25T11:28:11.193Z,13.41
2022-12-25T11:29:45.385Z,13.51
2022-12-25T11:30:53.404Z,13.55
2022-12-25T11:31:57.306Z,13.51
2022-12-25T11:33:03.950Z,13.52
2022-12-25T11:34:06.919Z,13.47
2022-12-25T11:35:18.112Z,13.49
2022-12-25T11:36:39.840Z,13.50
2022-12-25T11:37:48.471Z,13.50
2022-12-25T11:38:51.742Z,13.49
2022-12-25T11:39:53.870Z,13.52
2022-12-25T11:41:00.629Z,13.52
2022-12-25T11:42:11.797Z,13.52
2022-12-25T11:43:32.498Z,13.49
2022-12-25T11:44:33.999Z,13.51
2022-12-25T11:45:45.483Z,13.52
2022-12-25T11:46:52.185Z,13.48
2022-12-25T11:48:11.732Z,13.52
2022-12-25T11:49:18.153Z,13.62
2022-12-25T11:50:30.916Z,13.61
2022-12-25T11:51:35.771Z,13.62
2022-12-25T11:52:40.471Z,13.59
2022-12-25T11:53:41.977Z,13.60
2022-12-25T11:55:11.240Z,13.62
2022-12-25T11:56:19.842Z,13.60
2022-12-25T11:57:26.500Z,13.63
2022-12-25T11:58:49.641Z,13.66
2022-12-25T12:00:00.027Z,13.64
2022-12-25T12:01:05.969Z,13.65
2022-12-25T12:02:25.821Z,13.56
2022-12-25T12:03:40.571Z,13.59
2022-12-25T12:04:46.265Z,13.71
2022-12-25T12:05:57.472Z,13.72
2022-12-25T12:06:58.931Z,13.66
2022-12-25T12:08:03.089Z,13.67
2022-12-25T12:09:46.179Z,13.63
2022-12-25T12:11:24.852Z,13.66
2022-12-25T12:12:29.186Z,13.67
2022-12-25T12:13:47.043Z,13.79
2022-12-25T12:15:14.097Z,13.83
2022-12-25T12:16:15.851Z,13.78
2022-12-25T12:17:18.772Z,13.74
2022-12-25T12:18:31.728Z,13.71
2022-12-25T12:19:36.187Z,13.73
2022-12-25T12:20:37.926Z,13.77
2022-12-25T12:21:41.191Z,13.79
2022-12-25T12:22:49.355Z,13.74
2022-12-25T12:24:18.857Z,13.75
2022-12-25T12:25:23.035Z,13.82
2022-12-25T12:26:27.490Z,13.82
2022-12-25T12:27:38.432Z,13.83
2022-12-25T12:28:45.844Z,13.75
2022-12-25T12:29:51.901Z,13.74
2022-12-25T12:31:03.965Z,13.69
2022-12-25T12:32:19.417Z,13.71
2022-12-25T12:33:21.593Z,13.71
2022-12-25T12:34:42.769Z,13.74
2022-12-25T12:35:44.583Z,13.70
2022-12-25T12:36:46.408Z,13.71
2022-12-25T12:37:55.262Z,13.68
2022-12-25T12:38:59.047Z,13.70
2022-12-25T12:40:02.205Z,13.72
2022-12-25T12:41:07.355Z,13.76
2022-12-25T12:42:25.982Z,13.73
2022-12-25T12:43:42.342Z,13.83
2022-12-25T12:44:45.554Z,13.81
2022-12-25T12:45:56.767Z,13.85
2022-12-25T12:46:58.497Z,13.82
2022-12-25T12:48:00.445Z,13.80
2022-12-25T12:49:32.931Z,13.78
2022-12-25T12:50:41.080Z,13.77
2022-12-25T12:51:42.722Z,13.74
2022-12-25T12:52:44.285Z,13.76
2022-12-25T12:53:45.941Z,13.76
2022-12-25T12:55:02.773Z,13.77
2022-12-25T12:56:10.296Z,13.75
2022-12-25T12:57:32.685Z,13.83
2022-12-25T12:58:36.781Z,13.80
2022-12-25T12:59:44.401Z,13.79
2022-12-25T13:00:56.164Z,13.83
2022-12-25T13:02:06.515Z,13.89
2022-12-25T13:03:08.243Z,13.86
2022-12-25T13:04:39.163Z,13.87
2022-12-25T13:06:01.113Z,13.81
2022-12-25T13:07:18.979Z,13.81
2022-12-25T13:08:35.483Z,13.83
2022-12-25T13:10:22.956Z,13.82
2022-12-25T13:11:31.221Z,13.76
2022-12-25T13:12:33.004Z,13.80
2022-12-25T13:13:39.961Z,13.77
2022-12-25T13:14:46.253Z,13.78
2022-12-25T13:15:50.684Z,13.81
2022-12-25T13:16:54.588Z,13.81
2022-12-25T13:18:05.642Z,13.80
2022-12-25T13:19:24.730Z,13.80
2022-12-25T13:20:55.221Z,13.81
2022-12-25T13:22:02.128Z,13.75
2022-12-25T13:23:28.154Z,13.74
2022-12-25T13:24:35.157Z,13.72
2022-12-25T13:25:37.807Z,13.70
2022-12-25T13:26:39.632Z,13.67
2022-12-25T13:27:41.196Z,13.68
2022-12-25T13:28:45.703Z,13.72
2022-12-25T13:29:47.286Z,13.70
2022-12-25T13:30:49.700Z,13.71
2022-12-25T13:31:51.348Z,13.72
2022-12-25T13:32:53.532Z,13.75
2022-12-25T13:34:30.841Z,13.72
2022-12-25T13:35:34.194Z,13.74
2022-12-25T13:36:40.176Z,13.72
2022-12-25T13:37:43.066Z,13.71
2022-12-25T13:38:50.872Z,13.71
2022-12-25T13:39:56.534Z,13.69
2022-12-25T13:41:17.582Z,13.71
2022-12-25T13:42:22.643Z,13.69
2022-12-25T13:43:26.255Z,13.70
2022-12-25T13:44:31.991Z,13.68
2022-12-25T13:45:35.053Z,13.65
2022-12-25T13:46:36.660Z,13.65
2022-12-25T13:47:49.905Z,13.63
2022-12-25T13:49:01.687Z,13.65
2022-12-25T13:50:26.648Z,13.68
2022-12-25T13:51:28.681Z,13.66
2022-12-25T13:52:34.479Z,13.64
2022-12-25T13:53:36.021Z,13.63
2022-12-25T13:54:37.590Z,13.62
2022-12-25T13:55:40.197Z,13.65
2022-12-25T13:56:53.780Z,13.65
2022-12-25T13:57:55.229Z,13.67
2022-12-25T13:58:56.835Z,13.66
2022-12-25T13:59:59.738Z,13.61
2022-12-25T14:01:03.122Z,13.60
2022-12-25T14:02:14.552Z,13.62
2022-12-25T14:03:40.120Z,13.58
2022-12-25T14:04:44.962Z,13.55
2022-12-25T14:05:57.037Z,13.53
2022-12-25T14:07:09.799Z,13.46
2022-12-25T14:08:23.947Z,13.42
2022-12-25T14:09:25.667Z,13.43
2022-12-25T14:10:37.774Z,13.43
2022-12-25T14:11:43.181Z,13.45
2022-12-25T14:12:45.128Z,13.41
2022-12-25T14:13:49.485Z,13.42
2022-12-25T14:14:53.618Z,13.40
2022-12-25T14:15:56.653Z,13.44
2022-12-25T14:16:59.677Z,13.39
2022-12-25T14:18:01.504Z,13.40
2022-12-25T14:19:03.716Z,13.36
2022-12-25T14:20:08.743Z,13.30
2022-12-25T14:21:22.525Z,13.34
2022-12-25T14:22:25.269Z,13.38
2022-12-25T14:23:29.441Z,13.35
2022-12-25T14:24:34.436Z,13.27
2022-12-25T14:25:46.990Z,13.21
2022-12-25T14:27:04.273Z,13.22
2022-12-25T14:28:15.282Z,13.18
2022-12-25T14:29:23.683Z,13.11
2022-12-25T14:30:29.486Z,13.09
2022-12-25T14:31:32.636Z,13.08
2022-12-25T14:32:42.664Z,13.09
2022-12-25T14:33:46.195Z,13.10
2022-12-25T14:34:52.858Z,13.09
2022-12-25T14:35:54.657Z,13.09
2022-12-25T14:36:56.658Z,13.10
2022-12-25T14:38:00.342Z,13.13
2022-12-25T14:39:05.300Z,13.11
2022-12-25T14:40:30.777Z,13.06
2022-12-25T14:41:39.390Z,13.10
2022-12-25T14:42:41.009Z,13.04
2022-12-25T14:43:52.749Z,13.00
2022-12-25T14:44:59.396Z,13.01